createdAt,value
2018-09-09T00:02:18.242Z,15.80
2018-09-09T00:04:47.823Z,15.80
2018-09-09T00:07:16.643Z,15.90
2018-09-09T00:09:46.214Z,16.00
2018-09-09T00:12:15.050Z,16.00
2018-09-09T00:14:43.891Z,16.00
2018-09-09T00:17:12.726Z,16.00
2018-09-09T00:19:41.590Z,16.00
2018-09-09T00:22:10.447Z,16.00
2018-09-09T00:24:39.296Z,15.80
2018-09-09T00:27:08.112Z,15.70
2018-09-09T00:29:36.948Z,15.60
2018-09-09T00:32:05.789Z,15.60
2018-09-09T00:34:34.625Z,15.70
2018-09-09T00:37:04.201Z,15.60
2018-09-09T00:39:33.034Z,15.60
2018-09-09T00:42:01.879Z,15.60
2018-09-09T00:44:30.715Z,15.50
2018-09-09T00:46:59.553Z,15.50
2018-09-09T00:49:28.374Z,15.60
2018-09-09T00:51:58.974Z,15.50
2018-09-09T00:54:27.812Z,15.60
2018-09-09T00:56:57.380Z,15.50
2018-09-09T00:59:26.210Z,15.40
2018-09-09T01:01:55.782Z,15.40
2018-09-09T01:04:24.615Z,15.50
2018-09-09T01:06:53.448Z,15.50
2018-09-09T01:09:22.278Z,15.50
2018-09-09T01:11:51.855Z,15.20
2018-09-09T01:14:20.692Z,15.10
2018-09-09T01:16:49.531Z,15.10
2018-09-09T01:19:18.355Z,15.00
2018-09-09T01:21:47.193Z,14.90
2018-09-09T01:24:16.027Z,14.80
2018-09-09T01:26:45.601Z,14.70
2018-09-09T01:29:14.442Z,14.90
2018-09-09T01:31:43.270Z,14.90
2018-09-09T01:34:12.143Z,14.90
2018-09-09T01:36:41.681Z,15.00
2018-09-09T01:39:10.515Z,15.20
2018-09-09T01:41:39.350Z,15.20
2018-09-09T01:44:08.184Z,15.20
2018-09-09T01:46:37.018Z,15.20
2018-09-09T01:49:05.865Z,15.20
2018-09-09T01:51:34.682Z,15.20
2018-09-09T01:54:03.516Z,15.20
2018-09-09T01:56:33.094Z,15.10
2018-09-09T01:59:01.919Z,15.00
2018-09-09T02:01:30.756Z,15.10
2018-09-09T02:03:59.587Z,15.20
2018-09-09T02:06:28.420Z,15.00
2018-09-09T02:08:57.251Z,14.90
2018-09-09T02:11:26.082Z,15.00
2018-09-09T02:13:54.916Z,15.00
2018-09-09T02:16:23.739Z,15.00
2018-09-09T02:18:52.577Z,14.90
2018-09-09T02:21:21.400Z,14.80
2018-09-09T02:23:50.228Z,14.80
2018-09-09T02:26:19.061Z,14.80
2018-09-09T02:28:47.893Z,14.70
2018-09-09T02:31:16.731Z,14.80
2018-09-09T02:33:45.566Z,14.70
2018-09-09T02:36:14.413Z,14.80
2018-09-09T02:38:43.247Z,14.90
2018-09-09T02:41:12.092Z,14.80
2018-09-09T02:43:40.982Z,14.80
2018-09-09T02:46:09.752Z,14.70
2018-09-09T02:48:38.580Z,14.70
2018-09-09T02:51:07.404Z,14.70
2018-09-09T02:53:36.973Z,14.70
2018-09-09T02:56:05.807Z,14.70
2018-09-09T02:58:35.382Z,14.70
2018-09-09T03:01:04.211Z,14.60
2018-09-09T03:03:33.054Z,14.70
2018-09-09T03:06:01.889Z,14.60
2018-09-09T03:08:30.708Z,14.60
2018-09-09T03:10:59.540Z,14.60
2018-09-09T03:13:28.365Z,14.50
2018-09-09T03:15:57.203Z,14.50
2018-09-09T03:18:26.029Z,14.40
2018-09-09T03:20:55.603Z,14.40
2018-09-09T03:23:24.437Z,14.50
2018-09-09T03:25:53.270Z,14.40
2018-09-09T03:28:22.145Z,14.40
2018-09-09T03:30:51.668Z,14.50
2018-09-09T03:33:20.499Z,14.50
2018-09-09T03:35:50.076Z,14.50
2018-09-09T03:38:18.904Z,14.50
2018-09-09T03:40:47.743Z,14.60
2018-09-09T03:43:16.575Z,14.70
2018-09-09T03:45:46.148Z,14.70
2018-09-09T03:48:14.978Z,14.60
2018-09-09T03:50:43.823Z,14.50
2018-09-09T03:53:12.668Z,14.40
2018-09-09T03:55:41.500Z,14.40
2018-09-09T03:58:10.347Z,14.30
2018-09-09T04:00:39.184Z,14.30
2018-09-09T04:03:08.008Z,14.20
2018-09-09T04:05:36.841Z,14.10
2018-09-09T04:08:05.669Z,14.10
2018-09-09T04:10:34.500Z,14.10
2018-09-09T04:13:03.324Z,14.00
2018-09-09T04:15:32.148Z,14.00
2018-09-09T04:18:00.986Z,14.00
2018-09-09T04:20:29.800Z,14.10
2018-09-09T04:22:58.642Z,14.10
2018-09-09T04:25:27.484Z,14.00
2018-09-09T04:27:56.312Z,14.00
2018-09-09T04:30:25.150Z,14.00
2018-09-09T04:32:53.982Z,14.00
2018-09-09T04:35:22.830Z,14.00
2018-09-09T04:37:51.662Z,14.00
2018-09-09T04:40:20.499Z,13.90
2018-09-09T04:42:49.329Z,13.90
2018-09-09T04:45:18.898Z,13.80
2018-09-09T04:47:47.732Z,13.90
2018-09-09T04:50:16.563Z,13.90
2018-09-09T04:52:45.397Z,13.90
2018-09-09T04:55:14.238Z,13.90
2018-09-09T04:57:43.067Z,14.00
2018-09-09T05:00:11.912Z,14.00
2018-09-09T05:02:40.749Z,14.10
2018-09-09T05:05:10.440Z,14.10
2018-09-09T05:07:39.155Z,14.20
2018-09-09T05:10:08.731Z,14.10
2018-09-09T05:12:37.627Z,14.10
2018-09-09T05:15:06.453Z,14.10
2018-09-09T05:17:35.286Z,14.10
2018-09-09T05:20:04.126Z,14.10
2018-09-09T05:22:33.699Z,14.10
2018-09-09T05:25:02.538Z,14.10
2018-09-09T05:27:31.369Z,14.10
2018-09-09T05:30:00.209Z,14.10
2018-09-09T05:32:29.034Z,14.20
2018-09-09T05:34:57.865Z,14.20
2018-09-09T05:37:27.439Z,14.20
2018-09-09T05:39:56.270Z,14.40
2018-09-09T05:42:25.154Z,14.40
2018-09-09T05:44:53.927Z,14.40
2018-09-09T05:47:22.774Z,14.40
2018-09-09T05:49:51.608Z,14.40
2018-09-09T05:52:20.457Z,14.50
2018-09-09T05:54:49.299Z,14.40
2018-09-09T05:57:18.874Z,14.30
2018-09-09T05:59:47.694Z,14.30
2018-09-09T06:02:17.271Z,14.20
2018-09-09T06:04:46.096Z,14.30
2018-09-09T06:07:14.926Z,14.20
2018-09-09T06:09:43.755Z,14.20
2018-09-09T06:12:12.590Z,14.20
2018-09-09T06:14:41.432Z,14.20
2018-09-09T06:17:10.266Z,14.30
2018-09-09T06:19:39.097Z,14.30
2018-09-09T06:22:07.929Z,14.30
2018-09-09T06:24:36.779Z,14.30
2018-09-09T06:27:05.619Z,14.40
2018-09-09T06:29:34.444Z,14.40
2018-09-09T06:32:03.288Z,14.40
2018-09-09T06:34:32.871Z,14.50
2018-09-09T06:37:01.693Z,14.60
2018-09-09T06:39:31.273Z,14.50
2018-09-09T06:42:00.105Z,14.60
2018-09-09T06:44:28.950Z,14.60
2018-09-09T06:46:57.781Z,14.70
2018-09-09T06:49:26.607Z,14.80
2018-09-09T06:51:56.190Z,14.90
2018-09-09T06:54:25.041Z,15.00
2018-09-09T06:56:53.905Z,15.00
2018-09-09T06:59:23.471Z,15.00
2018-09-09T07:01:52.314Z,15.10
2018-09-09T07:04:21.183Z,15.10
2018-09-09T07:06:50.003Z,15.10
2018-09-09T07:09:18.841Z,15.00
2018-09-09T07:11:47.791Z,15.00
2018-09-09T07:14:16.524Z,15.10
2018-09-09T07:16:45.368Z,15.10
2018-09-09T07:19:14.283Z,15.10
2018-09-09T07:21:43.034Z,15.20
2018-09-09T07:24:11.886Z,15.30
2018-09-09T07:26:40.697Z,15.30
2018-09-09T07:29:09.543Z,15.40
2018-09-09T07:31:38.418Z,15.50
2018-09-09T07:34:07.247Z,15.60
2018-09-09T07:36:36.053Z,15.60
2018-09-09T07:39:04.926Z,15.70
2018-09-09T07:41:33.764Z,15.90
2018-09-09T07:44:02.598Z,16.00
2018-09-09T07:46:31.485Z,16.10
2018-09-09T07:49:00.260Z,16.20
2018-09-09T07:51:29.078Z,16.30
2018-09-09T07:53:57.911Z,16.40
2018-09-09T07:56:26.733Z,16.40
2018-09-09T07:58:55.576Z,16.40
2018-09-09T08:01:24.406Z,16.40
2018-09-09T08:03:53.238Z,16.40
2018-09-09T08:06:22.812Z,16.50
2018-09-09T08:08:51.660Z,16.50
2018-09-09T08:11:20.492Z,16.60
2018-09-09T08:13:49.315Z,16.70
2018-09-09T08:16:18.151Z,16.80
2018-09-09T08:18:46.987Z,16.90
2018-09-09T08:21:16.580Z,16.90
2018-09-09T08:23:45.451Z,17.00
2018-09-09T08:26:14.279Z,17.10
2018-09-09T08:28:43.116Z,17.00
2018-09-09T08:31:11.954Z,16.90
2018-09-09T08:33:40.795Z,17.00
2018-09-09T08:36:09.626Z,16.90
2018-09-09T08:38:38.454Z,16.90
2018-09-09T08:41:07.294Z,17.00
2018-09-09T08:43:36.173Z,17.10
2018-09-09T08:46:05.014Z,17.20
2018-09-09T08:48:33.862Z,17.20
2018-09-09T08:51:02.701Z,17.20
2018-09-09T08:53:31.533Z,17.20
2018-09-09T08:56:00.371Z,17.20
2018-09-09T08:58:29.516Z,17.30
2018-09-09T09:00:58.049Z,17.30
2018-09-09T09:03:26.881Z,17.40
2018-09-09T09:05:55.730Z,17.40
2018-09-09T09:08:24.576Z,17.50
2018-09-09T09:10:54.151Z,17.50
2018-09-09T09:13:22.989Z,17.70
2018-09-09T09:15:51.852Z,17.70
2018-09-09T09:18:20.696Z,17.80
2018-09-09T09:20:49.532Z,18.00
2018-09-09T09:23:18.375Z,18.00
2018-09-09T09:25:47.207Z,18.10
2018-09-09T09:28:16.037Z,18.20
2018-09-09T09:30:44.898Z,18.10
2018-09-09T09:33:13.702Z,18.30
2018-09-09T09:35:42.547Z,18.60
2018-09-09T09:38:11.394Z,18.70
2018-09-09T09:40:40.249Z,18.90
2018-09-09T09:43:09.084Z,19.10
2018-09-09T09:45:37.932Z,19.20
2018-09-09T09:48:06.762Z,19.20
2018-09-09T09:50:35.609Z,19.40
2018-09-09T09:53:05.219Z,19.40
2018-09-09T09:55:34.080Z,19.50
2018-09-09T09:58:02.858Z,19.60
2018-09-09T10:00:31.694Z,19.50
2018-09-09T10:03:01.277Z,19.70
2018-09-09T10:05:30.123Z,19.80
2018-09-09T10:07:58.962Z,19.90
2018-09-09T10:10:27.789Z,20.10
2018-09-09T10:12:56.627Z,20.20
2018-09-09T10:15:25.462Z,20.20
2018-09-09T10:17:54.317Z,20.20
2018-09-09T10:20:23.152Z,20.40
2018-09-09T10:22:51.974Z,20.30
2018-09-09T10:25:20.807Z,20.50
2018-09-09T10:27:50.378Z,20.50
2018-09-09T10:30:19.227Z,20.60
2018-09-09T10:32:48.048Z,20.70
2018-09-09T10:35:16.875Z,20.80
2018-09-09T10:37:45.704Z,20.90
2018-09-09T10:40:14.565Z,21.00
2018-09-09T10:42:43.406Z,21.00
2018-09-09T10:45:12.259Z,21.20
2018-09-09T10:47:41.116Z,21.30
2018-09-09T10:50:09.919Z,21.40
2018-09-09T10:52:39.500Z,21.30
2018-09-09T10:55:09.074Z,21.40
2018-09-09T10:57:37.901Z,21.50
2018-09-09T11:00:06.743Z,21.50
2018-09-09T11:02:35.588Z,21.50
2018-09-09T11:05:04.423Z,21.80
2018-09-09T11:07:33.252Z,21.90
2018-09-09T11:10:02.133Z,22.00
2018-09-09T11:12:30.972Z,22.10
2018-09-09T11:14:59.796Z,22.10
2018-09-09T11:17:28.633Z,22.10
2018-09-09T11:19:57.467Z,22.10
2018-09-09T11:22:26.311Z,22.20
2018-09-09T11:24:55.139Z,22.30
2018-09-09T11:27:24.785Z,22.40
2018-09-09T11:29:53.669Z,22.60
2018-09-09T11:32:22.456Z,22.70
2018-09-09T11:34:51.293Z,22.90
2018-09-09T11:37:20.128Z,22.90
2018-09-09T11:39:49.708Z,23.00
2018-09-09T11:42:18.548Z,23.20
2018-09-09T11:44:47.410Z,23.30
2018-09-09T11:47:16.275Z,23.40
2018-09-09T11:49:45.111Z,23.50
2018-09-09T11:52:13.945Z,23.50
2018-09-09T11:54:43.528Z,23.40
2018-09-09T11:57:12.355Z,23.40
2018-09-09T11:59:41.937Z,23.30
2018-09-09T12:02:10.765Z,23.30
2018-09-09T12:04:40.368Z,23.40
2018-09-09T12:07:09.199Z,23.50
2018-09-09T12:09:38.773Z,23.50
2018-09-09T12:12:08.355Z,23.70
2018-09-09T12:14:37.192Z,24.00
2018-09-09T12:17:06.051Z,24.10
2018-09-09T12:19:34.892Z,24.10
2018-09-09T12:22:03.724Z,24.30
2018-09-09T12:24:32.570Z,24.30
2018-09-09T12:27:01.410Z,24.30
2018-09-09T12:29:30.243Z,24.30
2018-09-09T12:31:59.089Z,24.30
2018-09-09T12:34:27.926Z,24.60
2018-09-09T12:36:56.769Z,24.90
2018-09-09T12:39:25.614Z,25.00
2018-09-09T12:41:54.440Z,25.10
2018-09-09T12:44:23.331Z,25.00
2018-09-09T12:46:52.243Z,25.00
2018-09-09T12:49:21.083Z,25.00
2018-09-09T12:51:49.923Z,25.00
2018-09-09T12:54:19.492Z,25.20
2018-09-09T12:56:48.336Z,25.30
2018-09-09T12:59:17.170Z,25.30
2018-09-09T13:01:45.997Z,25.30
2018-09-09T13:04:15.585Z,25.50
2018-09-09T13:06:44.435Z,25.70
2018-09-09T13:09:13.273Z,25.70
2018-09-09T13:11:42.106Z,26.00
2018-09-09T13:14:10.950Z,26.10
2018-09-09T13:16:39.794Z,26.30
2018-09-09T13:19:08.642Z,26.40
2018-09-09T13:21:37.470Z,26.40
2018-09-09T13:24:06.307Z,26.60
2018-09-09T13:26:35.194Z,26.70
2018-09-09T13:29:04.268Z,26.60
2018-09-09T13:31:32.907Z,26.60
2018-09-09T13:34:02.486Z,26.80
2018-09-09T13:36:31.334Z,26.80
2018-09-09T13:39:00.163Z,26.90
2018-09-09T13:41:28.998Z,26.80
2018-09-09T13:43:57.832Z,26.60
2018-09-09T13:46:26.692Z,26.70
2018-09-09T13:48:55.527Z,26.80
2018-09-09T13:51:24.355Z,26.90
2018-09-09T13:53:53.207Z,26.90
2018-09-09T13:56:22.042Z,26.80
2018-09-09T13:58:50.880Z,26.80
2018-09-09T14:01:19.722Z,26.70
2018-09-09T14:03:48.623Z,26.70
2018-09-09T14:06:17.442Z,26.70
2018-09-09T14:08:46.249Z,27.00
2018-09-09T14:11:15.138Z,27.00
2018-09-09T14:13:43.982Z,27.00
2018-09-09T14:16:12.815Z,27.10
2018-09-09T14:18:41.650Z,27.30
2018-09-09T14:21:10.488Z,27.10
2018-09-09T14:23:39.344Z,27.00
2018-09-09T14:26:08.163Z,27.00
2018-09-09T14:28:37.016Z,26.90
2018-09-09T14:31:05.860Z,27.00
2018-09-09T14:33:34.699Z,27.00
2018-09-09T14:36:03.540Z,27.10
2018-09-09T14:38:32.399Z,27.00
2018-09-09T14:41:01.229Z,27.10
2018-09-09T14:43:30.080Z,27.20
2018-09-09T14:45:58.950Z,27.20
2018-09-09T14:48:27.780Z,27.30
2018-09-09T14:50:56.642Z,27.30
2018-09-09T14:53:25.508Z,27.20
2018-09-09T14:55:54.329Z,27.30
2018-09-09T14:58:23.160Z,27.30
2018-09-09T15:00:52.177Z,27.30
2018-09-09T15:03:21.025Z,27.20
2018-09-09T15:05:49.887Z,27.20
2018-09-09T15:08:18.741Z,27.20
2018-09-09T15:10:47.572Z,27.10
2018-09-09T15:13:16.402Z,26.90
2018-09-09T15:15:45.238Z,26.70
2018-09-09T15:18:14.062Z,26.50
2018-09-09T15:20:43.646Z,26.40
2018-09-09T15:23:12.494Z,26.40
2018-09-09T15:25:41.352Z,26.50
2018-09-09T15:28:10.186Z,26.60
2018-09-09T15:30:39.032Z,26.60
2018-09-09T15:33:07.865Z,26.70
2018-09-09T15:35:36.710Z,26.80
2018-09-09T15:41:12.381Z,26.90
2018-09-09T15:43:45.072Z,26.80
2018-09-09T15:46:17.167Z,26.80
2018-09-09T15:48:44.659Z,26.70
2018-09-09T15:51:12.335Z,26.70
2018-09-09T15:53:52.151Z,26.60
2018-09-09T15:59:07.034Z,26.60
2018-09-09T16:01:39.824Z,26.60
2018-09-09T16:04:13.427Z,26.60
2018-09-09T16:06:45.086Z,26.60
2018-09-09T16:09:16.343Z,26.50
2018-09-09T16:11:46.122Z,26.60
2018-09-09T16:14:15.787Z,26.50
2018-09-09T16:16:46.280Z,26.30
2018-09-09T16:19:22.918Z,26.30
2018-09-09T16:21:52.123Z,26.10
2018-09-09T16:24:40.756Z,26.10
2018-09-09T16:29:43.766Z,25.90
2018-09-09T16:32:14.814Z,25.80
2018-09-09T16:34:53.770Z,25.80
2018-09-09T16:37:20.887Z,25.80
2018-09-09T16:39:51.184Z,25.60
2018-09-09T16:42:33.856Z,25.50
2018-09-09T16:44:58.938Z,25.50
2018-09-09T16:50:14.772Z,25.40
2018-09-09T16:52:50.488Z,25.30
2018-09-09T16:55:18.129Z,25.20
2018-09-09T16:57:52.152Z,25.20
2018-09-09T17:00:17.938Z,25.20
2018-09-09T17:02:57.016Z,25.10
2018-09-09T17:05:25.268Z,25.10
2018-09-09T17:08:03.112Z,25.00
2018-09-09T17:10:35.061Z,24.90
2018-09-09T17:15:45.966Z,24.70
2018-09-09T17:18:15.187Z,24.60
2018-09-09T17:20:48.525Z,24.50
2018-09-09T17:23:27.368Z,24.40
2018-09-09T17:25:57.883Z,24.30
2018-09-09T17:28:27.706Z,24.20
2018-09-09T17:31:05.448Z,24.10
2018-09-09T17:33:38.477Z,24.00
2018-09-09T17:36:11.167Z,23.90
2018-09-09T17:38:41.797Z,23.90
2018-09-09T17:41:24.015Z,23.80
2018-09-09T17:43:57.613Z,23.70
2018-09-09T17:46:29.559Z,23.60
2018-09-09T17:49:00.867Z,23.50
2018-09-09T17:51:37.864Z,23.40
2018-09-09T17:54:10.194Z,23.30
2018-09-09T17:56:50.297Z,23.20
2018-09-09T17:59:20.363Z,23.10
2018-09-09T18:01:51.927Z,23.10
2018-09-09T18:07:42.901Z,23.00
2018-09-09T18:10:13.636Z,22.80
2018-09-09T18:12:33.948Z,22.70
2018-09-09T18:15:09.406Z,22.60
2018-09-09T18:20:26.111Z,22.50
2018-09-09T18:25:39.049Z,22.50
2018-09-09T18:28:17.265Z,22.50
2018-09-09T18:30:53.427Z,22.50
2018-09-09T18:33:23.284Z,22.40
2018-09-09T18:41:53.097Z,22.30
2018-09-09T18:44:31.293Z,22.20
2018-09-09T18:49:35.913Z,22.00
2018-09-09T19:00:35.593Z,21.80
2018-09-09T19:03:07.761Z,21.70
2018-09-09T19:08:25.347Z,21.70
2018-09-09T19:14:00.711Z,21.60
2018-09-09T19:19:18.259Z,21.60
2018-09-09T19:21:50.409Z,21.40
2018-09-09T19:24:20.171Z,21.30
2018-09-09T19:26:52.538Z,21.20
2018-09-09T19:29:23.708Z,21.20
2018-09-09T19:32:02.258Z,21.10
2018-09-09T19:34:33.542Z,21.00
2018-09-09T19:37:02.409Z,21.10
2018-09-09T19:42:35.399Z,20.80
2018-09-09T19:45:08.763Z,20.80
2018-09-09T19:47:41.039Z,20.70
2018-09-09T19:50:10.424Z,20.70
2018-09-09T19:52:57.557Z,20.60
2018-09-09T19:55:27.118Z,20.50
2018-09-09T19:57:55.968Z,20.50
2018-09-09T20:00:24.837Z,20.50
2018-09-09T20:02:58.349Z,20.40
2018-09-09T20:05:29.523Z,20.30
2018-09-09T20:07:58.381Z,20.30
2018-09-09T20:10:27.253Z,20.30
2018-09-09T20:12:56.846Z,20.20
2018-09-09T20:15:25.704Z,20.20
2018-09-09T20:17:54.583Z,20.10
2018-09-09T20:20:24.371Z,20.00
2018-09-09T20:22:53.036Z,20.00
2018-09-09T20:25:21.799Z,19.90
2018-09-09T20:27:50.663Z,19.90
2018-09-09T20:30:19.498Z,19.90
2018-09-09T20:32:48.346Z,19.80
2018-09-09T20:35:17.236Z,19.90
2018-09-09T20:37:46.024Z,19.90
2018-09-09T20:40:14.893Z,19.90
2018-09-09T20:42:44.461Z,19.80
2018-09-09T20:45:13.319Z,19.80
2018-09-09T20:47:42.142Z,19.90
2018-09-09T20:50:10.992Z,19.80
2018-09-09T20:52:39.825Z,19.60
2018-09-09T20:55:08.673Z,19.50
2018-09-09T20:57:37.535Z,19.40
2018-09-09T21:00:06.354Z,19.40
2018-09-09T21:02:35.192Z,19.40
2018-09-09T21:05:04.036Z,19.40
2018-09-09T21:07:32.867Z,19.40
2018-09-09T21:10:02.333Z,19.30
2018-09-09T21:12:31.277Z,19.40
2018-09-09T21:15:00.103Z,19.40
2018-09-09T21:17:28.943Z,19.30
2018-09-09T21:19:57.803Z,19.20
2018-09-09T21:22:26.654Z,19.20
2018-09-09T21:24:55.507Z,19.20
2018-09-09T21:27:24.544Z,19.10
2018-09-09T21:29:53.374Z,19.20
2018-09-09T21:32:22.212Z,19.20
2018-09-09T21:34:51.061Z,19.10
2018-09-09T21:37:19.899Z,19.10
2018-09-09T21:39:48.730Z,18.90
2018-09-09T21:42:18.316Z,18.80
2018-09-09T21:44:47.146Z,18.70
2018-09-09T21:47:16.021Z,18.70
2018-09-09T21:49:44.860Z,18.70
2018-09-09T21:52:13.700Z,18.80
2018-09-09T21:54:42.549Z,18.70
2018-09-09T21:57:11.392Z,18.80
2018-09-09T21:59:40.964Z,18.80
2018-09-09T22:02:09.795Z,18.80
2018-09-09T22:04:39.088Z,18.80
2018-09-09T22:07:07.900Z,18.80
2018-09-09T22:09:36.764Z,18.60
2018-09-09T22:12:05.608Z,18.40
2018-09-09T22:14:34.443Z,18.10
2018-09-09T22:17:03.292Z,18.10
2018-09-09T22:19:32.125Z,18.10
2018-09-09T22:22:00.970Z,18.10
2018-09-09T22:24:29.809Z,17.90
2018-09-09T22:26:59.387Z,17.90
2018-09-09T22:29:28.224Z,18.00
2018-09-09T22:31:57.803Z,18.00
2018-09-09T22:34:26.647Z,18.00
2018-09-09T22:36:55.482Z,18.00
2018-09-09T22:39:24.320Z,17.90
2018-09-09T22:41:53.181Z,17.90
2018-09-09T22:44:22.046Z,17.80
2018-09-09T22:46:50.891Z,17.70
2018-09-09T22:49:19.717Z,17.70
2018-09-09T22:51:48.557Z,17.70
2018-09-09T22:54:17.396Z,17.70
2018-09-09T22:56:46.234Z,17.70
2018-09-09T22:59:15.055Z,17.70
2018-09-09T23:01:43.886Z,17.80
2018-09-09T23:04:12.722Z,17.80
2018-09-09T23:06:41.555Z,17.80
2018-09-09T23:09:10.415Z,17.80
2018-09-09T23:11:39.234Z,17.90
2018-09-09T23:14:08.069Z,17.90
2018-09-09T23:16:36.966Z,17.90
2018-09-09T23:19:06.511Z,17.90
2018-09-09T23:21:35.336Z,17.90
2018-09-09T23:24:04.170Z,17.90
2018-09-09T23:26:33.017Z,17.80
2018-09-09T23:29:01.845Z,17.70
2018-09-09T23:31:30.671Z,17.70
2018-09-09T23:33:59.501Z,17.80
2018-09-09T23:36:28.335Z,17.70
2018-09-09T23:38:57.166Z,17.80
2018-09-09T23:41:25.990Z,17.80
2018-09-09T23:43:54.838Z,17.80
2018-09-09T23:46:23.669Z,17.80
2018-09-09T23:48:52.506Z,17.90
2018-09-09T23:51:21.348Z,17.80
2018-09-09T23:53:50.177Z,17.80
2018-09-09T23:56:19.746Z,17.60
2018-09-09T23:58:48.584Z,17.60
